Time;durP1;ratioP1;P1;durP2;ratioP2;P2;SDS_P1;SDS_P2;PMS_P1;PMS_P2;Temp;Humidity;BMP_temperature;BMP_pressure;BME280_temperature;BME280_humidity;BME280_pressure;Samples;Min_cycle;Max_cycle;Signal;HPM_P1;HPM_P2
2022/10/24 00:01:39;;;;;;;12.15;3.10;;;17.00;99.90;;;;;;5068546;28;20052;-80
2022/10/24 00:04:06;;;;;;;7.25;2.75;;;17.00;99.90;;;;;;5066314;28;20072;-80
2022/10/24 00:06:33;;;;;;;16.52;3.33;;;17.00;99.90;;;;;;5067203;28;20055;-80
2022/10/24 00:09:00;;;;;;;10.70;3.33;;;17.10;99.90;;;;;;5067404;28;20492;-80
2022/10/24 00:11:28;;;;;;;11.35;2.85;;;17.10;99.90;;;;;;5062262;28;20032;-80
2022/10/24 00:13:56;;;;;;;17.10;3.28;;;17.00;99.90;;;;;;5074559;28;20055;-80
2022/10/24 00:16:25;;;;;;;21.40;3.80;;;17.00;99.90;;;;;;5079031;28;20124;-80
2022/10/24 00:18:52;;;;;;;12.38;3.33;;;17.00;99.90;;;;;;5062532;28;20048;-80
2022/10/24 00:21:19;;;;;;;17.98;3.65;;;17.10;99.90;;;;;;5055100;28;20044;-80
2022/10/24 00:23:46;;;;;;;11.25;3.47;;;17.00;99.90;;;;;;5065865;28;20048;-80
2022/10/24 00:26:14;;;;;;;16.15;3.42;;;17.10;99.90;;;;;;5057723;28;20049;-80
2022/10/24 00:28:41;;;;;;;8.93;3.38;;;17.00;99.90;;;;;;5061518;28;20068;-80
2022/10/24 00:31:11;;;;;;;8.32;3.42;;;17.00;99.90;;;;;;5073805;28;20044;-80
2022/10/24 00:33:40;;;;;;;11.52;3.60;;;17.00;99.90;;;;;;5073346;28;20052;-80
2022/10/24 00:36:11;;;;;;;12.63;3.80;;;17.00;99.90;;;;;;5068849;28;20044;-80
2022/10/24 00:38:38;;;;;;;16.55;4.47;;;17.00;99.90;;;;;;5072632;28;20109;-80
2022/10/24 00:41:05;;;;;;;11.82;3.67;;;17.00;99.90;;;;;;5072028;28;20071;-80
2022/10/24 00:43:32;;;;;;;14.48;3.60;;;17.00;99.90;;;;;;5071901;28;20044;-80
2022/10/24 00:46:00;;;;;;;13.52;3.75;;;17.00;99.90;;;;;;5076504;28;20032;-80
2022/10/24 00:48:30;;;;;;;11.48;3.80;;;17.00;99.90;;;;;;5090280;28;20044;-80
2022/10/24 00:51:02;;;;;;;12.20;3.58;;;17.10;99.90;;;;;;5071701;28;20051;-80
2022/10/24 00:53:30;;;;;;;12.93;3.60;;;17.00;99.90;;;;;;5070129;28;20055;-80
2022/10/24 00:55:58;;;;;;;12.98;3.92;;;17.10;99.90;;;;;;5067749;28;20060;-80
2022/10/24 00:58:27;;;;;;;15.80;4.22;;;17.00;99.90;;;;;;5071297;28;20041;-80
2022/10/24 01:00:55;;;;;;;18.30;3.78;;;17.00;99.90;;;;;;5069767;28;20059;-80
2022/10/24 01:03:22;;;;;;;9.32;3.35;;;17.00;99.90;;;;;;5068979;28;20047;-80
2022/10/24 01:06:17;;;;;;;7.82;3.45;;;17.00;99.90;;;;;;5066713;28;20042;-80
2022/10/24 01:08:49;;;;;;;16.60;3.35;;;17.10;99.90;;;;;;5065960;28;20060;-79
2022/10/24 01:11:25;;;;;;;13.00;3.30;;;17.00;99.90;;;;;;5072167;28;20413;-80
2022/10/24 01:14:00;;;;;;;12.63;3.08;;;17.00;99.90;;;;;;5058082;28;20398;-80
2022/10/24 01:16:30;;;;;;;10.43;3.25;;;17.20;99.90;;;;;;5069673;28;20035;-80
2022/10/24 01:19:01;;;;;;;7.57;3.15;;;17.10;99.90;;;;;;5078796;28;20045;-80
2022/10/24 01:21:31;;;;;;;11.68;2.90;;;17.10;99.90;;;;;;5071748;28;20048;-80
2022/10/24 01:24:30;;;;;;;11.13;3.05;;;17.30;99.90;;;;;;5058630;28;20493;-80
2022/10/24 01:27:05;;;;;;;9.15;2.85;;;17.10;99.90;;;;;;5068526;28;20415;-80
2022/10/24 01:29:48;;;;;;;12.43;3.33;;;17.10;99.90;;;;;;5075153;28;20043;-80
2022/10/24 01:32:21;;;;;;;9.43;2.63;;;17.10;99.90;;;;;;5080793;28;20055;-80
2022/10/24 01:34:53;;;;;;;14.27;2.83;;;17.10;99.90;;;;;;5072372;28;20033;-80
2022/10/24 01:37:25;;;;;;;18.30;3.15;;;17.10;99.90;;;;;;5068987;28;20048;-80
2022/10/24 01:39:55;;;;;;;11.02;3.03;;;17.10;99.90;;;;;;5071110;28;20037;-80
2022/10/24 01:42:24;;;;;;;9.90;3.03;;;17.10;99.90;;;;;;5068647;28;20044;-80
2022/10/24 01:44:56;;;;;;;14.68;2.97;;;17.10;99.90;;;;;;5066529;28;20044;-80
2022/10/24 01:47:24;;;;;;;9.25;2.63;;;17.10;99.90;;;;;;5072395;28;20048;-80
2022/10/24 01:49:54;;;;;;;11.85;2.75;;;17.10;99.90;;;;;;5069419;28;20040;-80
2022/10/24 01:52:21;;;;;;;11.13;2.92;;;17.10;99.90;;;;;;5053668;28;20040;-79
2022/10/24 01:54:48;;;;;;;12.05;2.70;;;17.10;99.90;;;;;;5065761;28;20029;-80
2022/10/24 01:57:15;;;;;;;11.73;2.60;;;17.10;99.90;;;;;;5069082;28;20074;-80
2022/10/24 01:59:45;;;;;;;7.05;2.95;;;17.20;99.90;;;;;;5070879;28;20036;-80
2022/10/24 02:02:16;;;;;;;11.85;3.20;;;17.30;99.90;;;;;;5068728;28;20040;-80
2022/10/24 02:04:50;;;;;;;15.57;3.28;;;17.20;99.90;;;;;;5083909;22;20143;-80
2022/10/24 02:07:19;;;;;;;10.10;2.67;;;17.20;99.90;;;;;;5051982;28;20068;-80
2022/10/24 02:09:49;;;;;;;14.27;2.88;;;17.20;99.90;;;;;;5064748;28;20040;-80
2022/10/24 02:12:16;;;;;;;8.35;3.10;;;17.20;99.90;;;;;;5050549;28;20049;-80
2022/10/24 02:14:45;;;;;;;9.95;2.92;;;17.20;99.90;;;;;;5068581;28;20051;-80
2022/10/24 02:17:14;;;;;;;10.63;2.90;;;17.20;99.90;;;;;;5069857;28;20416;-80
2022/10/24 02:19:41;;;;;;;14.50;3.53;;;17.20;99.90;;;;;;5070539;28;20044;-80
2022/10/24 02:22:14;;;;;;;8.15;2.88;;;17.30;99.90;;;;;;5069868;28;20050;-80
2022/10/24 02:24:46;;;;;;;14.02;2.78;;;17.20;99.90;;;;;;5064830;28;20036;-80
2022/10/24 02:27:14;;;;;;;;;;;17.30;99.90;;;;;;5069203;28;20049;-80
2022/10/24 02:29:44;;;;;;;12.35;2.70;;;17.30;99.90;;;;;;5066269;28;19932;-80
2022/10/24 02:32:15;;;;;;;7.95;2.38;;;17.30;99.90;;;;;;5069015;28;20527;-80
2022/10/24 02:34:43;;;;;;;13.25;3.03;;;17.30;99.90;;;;;;5066980;28;20051;-80
2022/10/24 02:37:11;;;;;;;12.00;2.97;;;17.20;99.90;;;;;;5073656;28;20102;-80
2022/10/24 02:39:40;;;;;;;10.05;2.72;;;17.30;99.90;;;;;;5083427;28;20037;-80
2022/10/24 02:42:07;;;;;;;9.60;2.85;;;17.30;99.90;;;;;;5068728;28;20523;-80
2022/10/24 02:44:35;;;;;;;8.73;2.40;;;17.30;99.90;;;;;;5066850;28;20037;-80
2022/10/24 02:47:04;;;;;;;10.57;2.55;;;17.30;99.90;;;;;;5068667;28;20044;-80
2022/10/24 02:49:32;;;;;;;8.55;2.40;;;17.30;99.90;;;;;;5069499;28;20056;-80
2022/10/24 02:52:00;;;;;;;7.15;2.40;;;17.30;99.90;;;;;;5069465;28;20055;-80
2022/10/24 02:54:27;;;;;;;15.52;3.03;;;17.20;99.90;;;;;;5062871;28;20047;-80
2022/10/24 02:56:56;;;;;;;8.00;2.15;;;17.20;99.90;;;;;;5068554;28;20051;-80
2022/10/24 02:59:23;;;;;;;9.68;2.50;;;17.30;99.90;;;;;;5057297;28;20120;-80
2022/10/24 03:01:50;;;;;;;15.38;2.80;;;17.20;99.90;;;;;;5053508;28;20663;-81
2022/10/24 03:04:18;;;;;;;9.45;2.80;;;17.20;99.90;;;;;;5066843;28;20032;-80
2022/10/24 03:06:46;;;;;;;7.03;2.17;;;17.20;99.90;;;;;;5068104;28;20481;-80
2022/10/24 03:09:13;;;;;;;7.40;2.03;;;17.30;99.90;;;;;;5068750;28;20040;-80
2022/10/24 03:11:40;;;;;;;11.88;2.72;;;17.20;99.90;;;;;;5066091;28;20542;-80
2022/10/24 03:14:07;;;;;;;6.53;2.33;;;17.20;99.90;;;;;;5062482;28;20044;-80
2022/10/24 03:16:33;;;;;;;10.52;2.72;;;17.30;99.90;;;;;;5067525;28;20493;-80
2022/10/24 03:19:00;;;;;;;8.73;2.33;;;17.20;99.90;;;;;;5063396;28;20040;-80
2022/10/24 03:21:27;;;;;;;8.02;2.50;;;17.30;99.90;;;;;;5068125;28;20036;-80
2022/10/24 03:23:56;;;;;;;9.20;2.25;;;17.30;99.90;;;;;;5075068;28;20046;-80
2022/10/24 03:26:23;;;;;;;9.20;2.55;;;17.30;99.90;;;;;;5072834;28;20036;-80
2022/10/24 03:28:50;;;;;;;8.20;2.30;;;17.30;99.90;;;;;;5072338;28;20043;-80
2022/10/24 03:31:17;;;;;;;13.52;2.70;;;17.30;99.90;;;;;;5068822;28;20071;-80
2022/10/24 03:33:44;;;;;;;8.18;2.72;;;17.30;99.90;;;;;;5053238;28;20040;-80
2022/10/24 03:36:11;;;;;;;7.95;2.20;;;17.30;99.90;;;;;;5067316;28;20054;-80
2022/10/24 03:38:37;;;;;;;12.52;2.17;;;17.20;99.90;;;;;;5068070;28;20044;-80
2022/10/24 03:41:06;;;;;;;13.90;2.53;;;17.30;99.90;;;;;;5066317;28;20048;-80
2022/10/24 03:43:33;;;;;;;9.45;2.78;;;17.30;99.90;;;;;;5067279;28;20040;-80
2022/10/24 03:46:00;;;;;;;11.60;2.60;;;17.30;99.90;;;;;;5067840;28;20058;-80
2022/10/24 03:48:27;;;;;;;9.18;2.40;;;17.30;99.90;;;;;;5062029;28;20055;-80
2022/10/24 03:50:54;;;;;;;13.13;2.50;;;17.30;99.90;;;;;;5068087;28;20040;-80
2022/10/24 03:53:21;;;;;;;8.63;2.40;;;17.30;99.90;;;;;;5060505;28;20044;-80
2022/10/24 03:55:47;;;;;;;11.77;2.75;;;17.30;99.90;;;;;;5067086;28;20047;-80
2022/10/24 03:58:16;;;;;;;8.13;2.30;;;17.30;99.90;;;;;;5065019;28;20055;-81
2022/10/24 04:00:43;;;;;;;17.02;2.88;;;17.30;99.90;;;;;;5082632;28;20066;-80
2022/10/24 04:03:10;;;;;;;8.18;2.90;;;17.30;99.90;;;;;;5092796;28;20048;-80
2022/10/24 04:05:38;;;;;;;9.98;2.85;;;17.30;99.90;;;;;;5071313;28;20481;-80
2022/10/24 04:08:06;;;;;;;10.68;2.95;;;17.20;99.90;;;;;;5072110;28;20052;-80
2022/10/24 04:10:33;;;;;;;14.10;2.95;;;17.20;99.90;;;;;;5071344;28;20416;-80
2022/10/24 04:13:00;;;;;;;13.18;3.42;;;17.20;99.90;;;;;;5069473;28;20036;-80
2022/10/24 04:15:28;;;;;;;10.50;2.83;;;17.20;99.90;;;;;;5061883;28;20050;-80
2022/10/24 04:17:55;;;;;;;11.10;2.92;;;17.20;99.90;;;;;;5088622;28;20050;-80
2022/10/24 04:20:22;;;;;;;11.25;3.05;;;17.20;99.90;;;;;;5092452;28;20578;-80
2022/10/24 04:22:49;;;;;;;9.13;2.63;;;17.20;99.90;;;;;;5069199;28;20040;-80
2022/10/24 04:25:17;;;;;;;14.13;3.05;;;17.20;99.90;;;;;;5070473;28;20045;-80
2022/10/24 04:27:44;;;;;;;15.95;2.92;;;17.30;99.90;;;;;;5071567;28;20040;-80
2022/10/24 04:30:13;;;;;;;9.20;3.03;;;17.30;99.90;;;;;;5071359;28;20044;-80
2022/10/24 04:32:41;;;;;;;13.18;3.13;;;17.30;99.90;;;;;;5073519;28;20458;-80
2022/10/24 04:35:09;;;;;;;11.35;3.17;;;17.20;99.90;;;;;;5068848;28;20419;-80
2022/10/24 04:37:35;;;;;;;9.70;2.30;;;17.10;99.90;;;;;;5071708;28;20029;-80
2022/10/24 04:40:03;;;;;;;9.27;2.70;;;17.20;99.90;;;;;;5070458;28;20048;-80
2022/10/24 04:42:30;;;;;;;13.02;2.28;;;17.20;99.90;;;;;;5071802;28;20054;-80
2022/10/24 04:44:57;;;;;;;9.80;2.67;;;17.20;99.90;;;;;;5068758;28;20048;-80
2022/10/24 04:47:24;;;;;;;10.15;2.42;;;17.20;99.90;;;;;;5067263;28;20039;-81
2022/10/24 04:49:52;;;;;;;12.35;2.97;;;17.20;99.90;;;;;;5076947;28;20052;-83
2022/10/24 04:52:19;;;;;;;15.90;3.28;;;17.10;99.90;;;;;;5083423;28;20474;-80
2022/10/24 04:54:46;;;;;;;8.57;1.92;;;17.20;99.90;;;;;;5074986;28;20058;-80
2022/10/24 04:57:13;;;;;;;9.55;2.45;;;17.20;99.90;;;;;;5070825;28;20044;-81
2022/10/24 04:59:40;;;;;;;8.55;2.33;;;17.10;99.90;;;;;;5066955;28;20043;-80
2022/10/24 05:02:07;;;;;;;9.60;2.08;;;17.10;99.90;;;;;;5069624;28;20048;-81
2022/10/24 05:04:34;;;;;;;11.93;2.63;;;17.10;99.90;;;;;;5070027;28;20036;-80
2022/10/24 05:07:02;;;;;;;8.38;2.25;;;17.10;99.90;;;;;;5082252;28;20494;-80
2022/10/24 05:09:29;;;;;;;7.22;2.22;;;17.10;99.90;;;;;;5071380;28;20047;-81
2022/10/24 05:11:56;;;;;;;8.38;2.03;;;17.10;99.90;;;;;;5061926;28;20412;-80
2022/10/24 05:14:23;;;;;;;8.98;2.15;;;17.10;99.90;;;;;;5069321;28;20489;-80
2022/10/24 05:16:50;;;;;;;8.38;2.33;;;17.10;99.90;;;;;;5071256;28;20493;-80
2022/10/24 05:19:18;;;;;;;5.32;2.22;;;17.10;99.90;;;;;;5070290;28;20048;-81
2022/10/24 05:21:45;;;;;;;8.45;2.17;;;17.10;99.90;;;;;;5069356;28;20078;-79
2022/10/24 05:24:13;;;;;;;9.75;2.22;;;17.10;99.90;;;;;;5079059;28;20040;-81
2022/10/24 05:26:40;;;;;;;11.05;3.22;;;17.10;99.90;;;;;;5081037;28;20063;-80
2022/10/24 05:29:07;;;;;;;7.53;2.03;;;17.10;99.90;;;;;;5064033;28;20045;-80
2022/10/24 05:31:34;;;;;;;7.53;2.33;;;17.20;99.90;;;;;;5063828;28;20408;-80
2022/10/24 05:34:01;;;;;;;9.32;2.30;;;17.10;99.90;;;;;;5069971;28;20420;-82
2022/10/24 05:36:28;;;;;;;10.00;2.20;;;17.10;99.90;;;;;;5068771;28;20588;-82
2022/10/24 05:38:55;;;;;;;12.35;2.35;;;17.10;99.90;;;;;;5070072;28;20040;-81
2022/10/24 05:41:23;;;;;;;11.23;2.30;;;17.10;99.90;;;;;;5073219;28;20044;-82
2022/10/24 05:43:50;;;;;;;8.35;2.00;;;17.10;99.90;;;;;;5065735;28;20531;-80
2022/10/24 05:46:17;;;;;;;7.22;2.45;;;17.00;99.90;;;;;;5067981;28;20041;-80
2022/10/24 05:48:44;;;;;;;9.30;2.10;;;17.10;99.90;;;;;;5066551;28;20060;-79
2022/10/24 05:51:11;;;;;;;10.05;2.42;;;17.10;99.90;;;;;;5068005;28;20053;-80
2022/10/24 05:53:37;;;;;;;8.98;2.95;;;17.00;99.90;;;;;;5069859;28;20040;-80
2022/10/24 05:56:05;;;;;;;12.45;2.30;;;17.00;99.90;;;;;;5069013;28;20037;-79
2022/10/24 05:58:34;;;;;;;20.73;2.42;;;17.00;99.90;;;;;;5085175;28;20844;-79
2022/10/24 06:01:01;;;;;;;16.00;2.60;;;17.00;99.90;;;;;;5063097;28;20528;-79
2022/10/24 06:03:28;;;;;;;7.60;2.15;;;17.00;99.90;;;;;;5070076;28;20135;-79
2022/10/24 06:05:55;;;;;;;8.63;2.17;;;17.00;99.90;;;;;;5069119;28;20048;-79
2022/10/24 06:08:22;;;;;;;10.13;2.72;;;17.00;99.90;;;;;;5069126;28;20044;-78
2022/10/24 06:10:49;;;;;;;11.15;3.00;;;17.00;99.90;;;;;;5071279;28;20413;-79
2022/10/24 06:13:17;;;;;;;8.57;1.85;;;17.00;99.90;;;;;;5081328;28;20119;-79
2022/10/24 06:15:45;;;;;;;9.18;2.28;;;16.90;99.90;;;;;;5087460;28;20035;-79
2022/10/24 06:18:12;;;;;;;9.48;1.80;;;16.90;99.90;;;;;;5071025;28;20808;-79
2022/10/24 06:20:39;;;;;;;7.80;1.95;;;16.90;99.90;;;;;;5069751;28;20044;-79
2022/10/24 06:23:06;;;;;;;8.82;1.92;;;17.00;99.90;;;;;;5069718;28;20044;-80
2022/10/24 06:25:32;;;;;;;9.32;2.08;;;17.00;99.90;;;;;;5067393;28;20051;-80
2022/10/24 06:27:59;;;;;;;8.88;2.10;;;17.00;99.90;;;;;;5068965;28;20041;-80
2022/10/24 06:30:26;;;;;;;9.23;2.17;;;17.00;99.90;;;;;;5069683;28;20455;-79
2022/10/24 06:32:55;;;;;;;10.32;2.20;;;16.90;99.90;;;;;;5069686;28;20050;-79
2022/10/24 06:35:22;;;;;;;9.65;2.58;;;17.00;99.90;;;;;;5068756;28;20050;-80
2022/10/24 06:37:48;;;;;;;9.95;2.13;;;17.00;99.90;;;;;;5069154;28;20505;-79
2022/10/24 06:40:16;;;;;;;6.40;1.80;;;17.00;99.90;;;;;;5067967;28;20037;-80
2022/10/24 06:42:43;;;;;;;6.70;1.67;;;17.00;99.90;;;;;;5088856;28;20043;-80
2022/10/24 06:45:10;;;;;;;7.97;2.30;;;17.00;99.90;;;;;;5069552;28;20040;-79
2022/10/24 06:47:37;;;;;;;10.48;2.33;;;17.00;99.90;;;;;;5069240;28;20043;-79
2022/10/24 06:50:06;;;;;;;8.07;1.85;;;17.00;99.90;;;;;;5069555;28;20416;-79
2022/10/24 06:52:33;;;;;;;5.63;1.70;;;17.00;99.90;;;;;;5068817;28;20534;-79
2022/10/24 06:55:00;;;;;;;8.15;1.73;;;17.00;99.90;;;;;;5067921;28;20041;-79
2022/10/24 06:57:27;;;;;;;11.10;2.17;;;17.00;99.90;;;;;;5074605;28;20064;-79
2022/10/24 06:59:54;;;;;;;13.23;2.30;;;17.00;99.90;;;;;;5075430;28;20048;-80
2022/10/24 07:02:21;;;;;;;8.55;2.10;;;17.00;99.90;;;;;;5061182;28;20043;-80
2022/10/24 07:04:48;;;;;;;5.30;1.85;;;17.00;99.90;;;;;;5067542;28;20055;-79
2022/10/24 07:07:17;;;;;;;9.73;1.88;;;17.00;99.90;;;;;;5068038;28;20036;-80
2022/10/24 07:09:45;;;;;;;8.82;1.92;;;17.00;99.90;;;;;;5069174;28;20063;-80
2022/10/24 07:12:12;;;;;;;9.05;2.15;;;17.10;99.90;;;;;;5069049;28;20044;-80
2022/10/24 07:14:39;;;;;;;9.68;2.20;;;17.00;99.90;;;;;;5067620;28;20111;-80
2022/10/24 07:17:06;;;;;;;9.38;1.92;;;17.10;99.90;;;;;;5086764;28;20039;-79
2022/10/24 07:19:33;;;;;;;9.40;1.70;;;17.10;99.90;;;;;;5059509;28;20990;-80
2022/10/24 07:21:59;;;;;;;5.75;2.00;;;17.10;99.90;;;;;;5064693;28;20063;-80
2022/10/24 07:24:28;;;;;;;9.48;1.98;;;17.20;99.90;;;;;;5063543;28;20036;-80
2022/10/24 07:26:55;;;;;;;10.13;2.08;;;17.20;99.90;;;;;;5062210;28;20113;-80
2022/10/24 07:29:22;;;;;;;7.07;2.08;;;17.20;99.90;;;;;;5046158;28;20051;-80
2022/10/24 07:31:49;;;;;;;9.50;1.90;;;17.20;99.90;;;;;;5064809;28;20515;-81
2022/10/24 07:34:16;;;;;;;8.30;2.00;;;17.30;99.90;;;;;;5065916;28;20040;-81
2022/10/24 07:36:43;;;;;;;7.82;1.67;;;17.30;99.90;;;;;;5062595;28;20044;-80
2022/10/24 07:39:10;;;;;;;8.50;1.70;;;17.20;99.90;;;;;;5062798;28;21240;-80
2022/10/24 07:41:40;;;;;;;11.25;2.00;;;17.30;99.90;;;;;;5062734;28;20093;-80
2022/10/24 07:44:07;;;;;;;8.82;1.98;;;17.30;99.90;;;;;;5067307;28;20048;-80
2022/10/24 07:46:34;;;;;;;10.85;1.90;;;17.30;99.90;;;;;;5066950;28;20763;-80
2022/10/24 07:49:27;;;;;;;12.90;2.17;;;17.30;99.90;;;;;;5067737;28;20032;-80
2022/10/24 07:51:54;;;;;;;9.68;1.60;;;17.40;99.90;;;;;;5045990;28;20466;-80
2022/10/24 07:54:21;;;;;;;7.50;1.50;;;17.40;99.90;;;;;;5064862;28;20048;-80
2022/10/24 07:56:49;;;;;;;10.20;1.95;;;17.40;99.90;;;;;;5067079;28;20039;-80
2022/10/24 07:59:16;;;;;;;9.38;1.80;;;17.40;99.90;;;;;;5061616;28;20098;-79
2022/10/24 08:01:43;;;;;;;6.10;1.77;;;17.40;99.90;;;;;;5067425;28;20496;-80
2022/10/24 08:04:11;;;;;;;7.88;1.88;;;17.40;99.90;;;;;;5065699;28;20505;-80
2022/10/24 08:06:39;;;;;;;5.28;1.50;;;17.40;99.90;;;;;;5081867;22;20424;-89
2022/10/24 08:09:06;;;;;;;8.60;1.85;;;17.40;99.90;;;;;;5065584;28;20498;-88
2022/10/24 08:11:33;;;;;;;8.10;1.92;;;17.40;99.90;;;;;;5068207;28;20051;-89
2022/10/24 08:14:02;;;;;;;7.80;1.90;;;17.50;99.90;;;;;;5047944;28;20141;-88
2022/10/24 08:16:29;;;;;;;6.75;1.70;;;17.50;99.90;;;;;;5067929;28;20040;-88
2022/10/24 08:18:57;;;;;;;9.02;1.77;;;17.50;99.90;;;;;;5074094;28;20116;-89
2022/10/24 08:21:25;;;;;;;6.35;1.85;;;17.50;99.90;;;;;;5068783;28;20040;-87
2022/10/24 08:23:53;;;;;;;9.02;1.73;;;17.50;99.90;;;;;;5064388;28;20040;-90
2022/10/24 08:26:22;;;;;;;9.93;2.00;;;17.50;99.90;;;;;;5043154;28;20059;-90
2022/10/24 08:28:50;;;;;;;10.07;2.08;;;17.50;99.90;;;;;;5068479;28;20771;-91
2022/10/24 08:31:20;;;;;;;10.10;2.08;;;17.50;99.90;;;;;;5067755;28;20535;-90
2022/10/24 08:33:47;;;;;;;8.85;1.90;;;17.50;99.90;;;;;;5064067;28;20037;-90
2022/10/24 08:36:19;;;;;;;9.70;1.65;;;17.50;99.90;;;;;;5067213;28;20055;-91
2022/10/24 08:38:46;;;;;;;7.03;1.50;;;17.50;99.90;;;;;;5066112;28;20532;-91
2022/10/24 08:41:18;;;;;;;7.13;1.98;;;17.60;99.90;;;;;;5068361;28;20064;-90
2022/10/24 08:43:45;;;;;;;8.85;1.83;;;17.60;99.90;;;;;;5070179;28;20500;-89
2022/10/24 08:46:25;;;;;;;13.50;1.98;;;17.60;99.90;;;;;;5071038;28;20496;-88
2022/10/24 08:48:56;;;;;;;9.07;1.60;;;17.60;99.90;;;;;;5071128;28;20043;-90
2022/10/24 08:51:30;;;;;;;8.00;1.92;;;17.70;99.90;;;;;;5057510;28;20072;-90
2022/10/24 08:53:58;;;;;;;11.20;2.08;;;17.70;99.90;;;;;;5073061;28;20493;-90
2022/10/24 08:56:26;;;;;;;9.18;2.10;;;17.70;99.90;;;;;;5069926;28;20043;-90
2022/10/24 08:58:53;;;;;;;10.43;2.00;;;17.70;99.90;;;;;;5071698;28;20041;-89
2022/10/24 09:01:28;;;;;;;8.98;2.20;;;17.70;99.90;;;;;;5072025;28;20045;-87
2022/10/24 09:03:56;;;;;;;7.82;1.92;;;17.70;99.90;;;;;;5051672;28;20068;-88
2022/10/24 09:06:25;;;;;;;8.25;1.83;;;17.70;99.90;;;;;;5070700;28;20040;-88
2022/10/24 09:08:53;;;;;;;11.90;2.08;;;17.70;99.90;;;;;;5071579;28;20029;-87
2022/10/24 09:11:26;;;;;;;5.72;1.85;;;17.70;99.90;;;;;;5063189;28;20121;-90
2022/10/24 09:13:54;;;;;;;5.85;1.85;;;17.70;99.90;;;;;;5069795;28;20047;-89
2022/10/24 09:16:22;;;;;;;7.18;1.70;;;17.70;99.90;;;;;;5069828;28;20050;-87
2022/10/24 09:18:53;;;;;;;9.55;1.98;;;17.70;99.90;;;;;;5071244;28;20034;-86
2022/10/24 09:21:20;;;;;;;7.70;1.58;;;17.70;99.90;;;;;;5071499;28;20056;-89
2022/10/24 09:23:47;;;;;;;7.78;2.03;;;17.70;99.90;;;;;;5069007;28;20051;-90
2022/10/24 09:26:17;;;;;;;13.73;2.08;;;17.70;99.90;;;;;;5072641;28;20128;-88
2022/10/24 09:28:45;;;;;;;13.68;1.70;;;17.70;99.90;;;;;;5076174;28;20037;-92
2022/10/24 09:31:16;;;;;;;9.10;1.90;;;17.70;99.90;;;;;;5073004;28;20094;-92
2022/10/24 09:33:45;;;;;;;11.95;2.13;;;17.70;99.90;;;;;;5069300;28;20037;-91
2022/10/24 09:36:15;;;;;;;6.78;1.70;;;17.80;99.90;;;;;;5067015;28;20451;-93
2022/10/24 09:38:43;;;;;;;10.03;2.37;;;17.70;99.90;;;;;;5071738;28;20116;-92
2022/10/24 09:41:21;;;;;;;8.52;1.95;;;17.80;99.90;;;;;;5064695;28;20385;-91
2022/10/24 09:43:52;;;;;;;6.50;1.92;;;17.80;99.90;;;;;;5063717;28;20044;-93
2022/10/24 09:46:20;;;;;;;12.60;2.25;;;17.70;99.90;;;;;;5068738;28;20044;-92
2022/10/24 09:48:52;;;;;;;9.15;1.70;;;17.80;99.90;;;;;;5069237;28;20041;-91
2022/10/24 09:51:25;;;;;;;11.85;2.55;;;17.80;99.90;;;;;;5066684;28;20123;-91
2022/10/24 09:54:06;;;;;;;10.23;1.70;;;17.80;99.90;;;;;;5069837;28;20039;-94
2022/10/24 09:56:48;;;;;;;7.70;1.60;;;17.90;99.90;;;;;;5062942;28;20047;-92
2022/10/24 09:59:23;;;;;;;10.35;1.75;;;17.90;99.90;;;;;;5081720;28;20041;-94
2022/10/24 10:02:02;;;;;;;;;;;;;;;;;;;;;
2022/10/24 10:04:29;;;;;;;9.85;1.60;;;18.00;99.90;;;;;;5083365;28;20527;-94
2022/10/24 10:06:58;;;;;;;17.35;2.47;;;18.00;99.90;;;;;;5092866;28;20040;-94
2022/10/24 10:09:30;;;;;;;8.18;1.70;;;18.00;99.90;;;;;;5056220;28;20060;-94
2022/10/24 10:11:58;;;;;;;8.73;1.60;;;18.00;99.90;;;;;;5064508;28;20046;-93
2022/10/24 10:14:29;;;;;;;8.38;1.60;;;18.10;99.90;;;;;;5051631;28;20056;-93
2022/10/24 10:17:04;;;;;;;;;;;18.10;99.90;;;;;;5059522;28;20572;-93
2022/10/24 10:19:44;;;;;;;11.07;2.00;;;18.10;99.90;;;;;;5074674;28;19923;-94
2022/10/24 10:22:25;;;;;;;10.70;1.67;;;18.10;99.90;;;;;;5072720;28;20515;-92
2022/10/24 10:24:55;;;;;;;16.38;3.25;;;18.10;99.90;;;;;;5047996;28;20084;-91
2022/10/24 10:27:29;;;;;;;12.57;1.88;;;18.10;99.90;;;;;;5065465;28;20493;-89
2022/10/24 10:30:17;;;;;;;12.32;2.30;;;18.20;99.90;;;;;;5062718;28;20095;-90
2022/10/24 10:32:51;;;;;;;10.00;2.00;;;18.20;99.90;;;;;;5044009;28;20048;-90
2022/10/24 10:38:11;;;;;;;11.05;1.83;;;18.20;99.90;;;;;;2693596;22;20061;-91
2022/10/24 10:40:45;;;;;;;15.02;2.75;;;18.20;99.90;;;;;;5048271;28;20398;-93
2022/10/24 10:43:22;;;;;;;12.15;2.42;;;18.20;99.90;;;;;;5049776;28;20063;-92
2022/10/24 10:45:57;;;;;;;9.48;1.88;;;18.20;99.90;;;;;;5053105;28;20051;-89
2022/10/24 10:48:39;;;;;;;12.77;2.10;;;18.20;99.90;;;;;;5052965;28;20072;-91
2022/10/24 10:51:13;;;;;;;11.63;1.90;;;18.20;99.90;;;;;;5057335;28;20049;-90
2022/10/24 10:53:47;;;;;;;7.90;1.85;;;18.20;99.90;;;;;;5034489;28;20076;-91
2022/10/24 10:56:25;;;;;;;8.80;1.85;;;18.20;99.90;;;;;;5049557;28;20497;-87
2022/10/24 10:59:01;;;;;;;10.77;1.80;;;18.20;99.90;;;;;;5041770;28;20037;-88
2022/10/24 11:01:34;;;;;;;8.80;1.65;;;18.20;99.90;;;;;;5040336;28;20106;-91
2022/10/24 11:04:07;;;;;;;10.13;1.80;;;18.20;99.90;;;;;;5050760;28;20497;-92
2022/10/24 11:06:40;;;;;;;18.35;2.42;;;18.30;99.90;;;;;;5029363;28;20488;-92
2022/10/24 11:09:34;;;;;;;8.63;2.05;;;18.30;99.90;;;;;;5053125;28;20135;-91
2022/10/24 11:12:06;;;;;;;10.70;2.13;;;18.30;99.90;;;;;;5048984;28;20454;-91
2022/10/24 11:14:35;;;;;;;12.13;2.28;;;18.30;99.90;;;;;;5042653;28;20582;-91
2022/10/24 11:17:10;;;;;;;13.40;2.55;;;18.30;99.90;;;;;;5030369;28;20424;-92
2022/10/24 11:19:43;;;;;;;9.05;1.67;;;18.30;99.90;;;;;;5053507;28;20093;-91
2022/10/24 11:22:17;;;;;;;17.98;2.10;;;18.30;99.90;;;;;;5053949;28;20674;-92
2022/10/24 11:24:53;;;;;;;9.77;2.00;;;18.30;99.90;;;;;;5053806;28;20050;-92
2022/10/24 11:27:25;;;;;;;8.98;2.17;;;18.40;99.90;;;;;;5052083;28;20409;-92
2022/10/24 11:29:55;;;;;;;9.70;1.83;;;18.40;99.90;;;;;;5054237;28;20461;-94
2022/10/24 11:32:27;;;;;;;14.48;2.10;;;18.40;99.90;;;;;;5057129;28;20051;-92
2022/10/24 11:34:58;;;;;;;8.82;2.00;;;18.40;99.90;;;;;;5045765;28;20132;-92
2022/10/24 11:37:28;;;;;;;10.52;2.00;;;18.30;99.90;;;;;;5049884;28;20112;-88
2022/10/24 11:39:59;;;;;;;12.50;1.92;;;18.30;99.90;;;;;;5059622;28;20123;-90
2022/10/24 11:42:31;;;;;;;11.40;1.88;;;18.40;99.90;;;;;;5048684;28;20045;-91
2022/10/24 11:45:04;;;;;;;9.57;2.25;;;18.40;99.90;;;;;;5047202;28;20060;-91
2022/10/24 11:47:43;;;;;;;15.88;2.25;;;18.40;99.90;;;;;;5031272;28;20124;-90
2022/10/24 11:50:13;;;;;;;10.23;2.30;;;18.40;99.90;;;;;;5056183;28;20554;-91
2022/10/24 11:52:44;;;;;;;7.90;1.50;;;18.40;99.90;;;;;;5048673;28;20047;-90
2022/10/24 11:55:16;;;;;;;9.43;1.90;;;18.40;99.90;;;;;;5046650;28;20124;-92
2022/10/24 11:57:45;;;;;;;11.45;2.28;;;18.40;99.90;;;;;;5057092;28;20048;-92
2022/10/24 12:00:19;;;;;;;11.02;2.20;;;18.40;99.90;;;;;;5035894;28;20143;-92
2022/10/24 12:03:27;;;;;;;13.57;1.90;;;18.30;99.90;;;;;;5048182;28;20041;-90
2022/10/24 12:06:25;;;;;;;13.68;2.22;;;18.30;99.90;;;;;;5044374;28;20068;-93
2022/10/24 12:09:11;;;;;;;12.40;2.10;;;18.30;99.90;;;;;;5055947;28;20057;-93
2022/10/24 12:12:03;;;;;;;10.48;1.90;;;18.40;99.90;;;;;;5042382;28;20528;-91
2022/10/24 12:14:32;;;;;;;;;;;18.40;99.90;;;;;;5056172;28;20047;-90
2022/10/24 12:17:21;;;;;;;13.38;2.70;;;18.40;99.90;;;;;;5053057;28;20345;-94
2022/10/24 12:19:49;;;;;;;9.15;2.08;;;18.40;99.90;;;;;;5034370;28;20138;-91
2022/10/24 12:22:20;;;;;;;11.05;2.00;;;18.40;99.90;;;;;;5051851;28;20056;-92
2022/10/24 12:24:47;;;;;;;12.65;2.60;;;18.30;99.90;;;;;;5051069;28;20063;-90
2022/10/24 12:27:28;;;;;;;9.43;2.20;;;18.30;99.90;;;;;;5052289;28;20091;-91
2022/10/24 12:30:04;;;;;;;10.68;2.28;;;18.30;99.90;;;;;;5047886;28;20557;-90
2022/10/24 12:32:38;;;;;;;11.68;2.13;;;18.30;99.90;;;;;;5036368;28;20057;-90
2022/10/24 12:35:34;;;;;;;11.52;2.05;;;18.30;99.90;;;;;;5054558;28;20068;-92
2022/10/24 12:38:01;;;;;;;8.07;2.13;;;18.30;99.90;;;;;;5047633;28;20052;-91
2022/10/24 12:40:54;;;;;;;7.13;1.60;;;18.30;99.90;;;;;;5034541;28;20047;-91
2022/10/24 12:43:31;;;;;;;12.75;2.13;;;18.30;99.90;;;;;;5056292;28;20037;-91
2022/10/24 12:46:00;;;;;;;17.67;2.60;;;18.30;99.90;;;;;;5038463;28;20661;-90
2022/10/24 12:48:35;;;;;;;10.48;2.00;;;18.30;99.90;;;;;;5042476;28;20505;-90
2022/10/24 12:51:19;;;;;;;10.25;1.83;;;18.30;99.90;;;;;;5054019;28;20056;-90
2022/10/24 12:54:14;;;;;;;11.88;2.65;;;18.30;99.90;;;;;;5055522;28;20071;-90
2022/10/24 12:57:15;;;;;;;10.98;1.90;;;18.20;99.90;;;;;;5047883;28;20033;-90
2022/10/24 12:59:48;;;;;;;11.20;1.90;;;18.20;99.90;;;;;;5047052;28;20036;-91
2022/10/24 13:02:42;;;;;;;8.30;1.83;;;18.20;99.90;;;;;;5032238;28;20045;-92